Terminal Aerodrome Forecast
Issued by NWS Sterling, VA

Current Version | Previous Version | Text Only | Print | Product List | Glossary On
Versions: 1 2 3 4 5 6 7 8 9 10 11 12 13
000
FTUS41 KLWX 241700
TAFMRB
TAF
KMRB 241733Z 2418/2518 32006KT P6SM SCT250
     FM242100 31004KT P6SM SCT250
     FM250600 VRB03KT P6SM BKN110
     FM251200 13007KT P6SM BKN100
     FM251500 14011KT P6SM BKN040=

USA.gov is the U.S. government's official web portal to all federal, state and local government web resources and services.